Time;durP1;ratioP1;P1;durP2;ratioP2;P2;SDS_P1;SDS_P2;PMS_P1;PMS_P2;Temp;Humidity;BMP_temperature;BMP_pressure;BME280_temperature;BME280_humidity;BME280_pressure;Samples;Min_cycle;Max_cycle;Signal;HPM_P1;HPM_P2
2021/04/17 00:01:14;;;;;;;4.03;3.50;;;2.80;99.90;;;;;;4863936;29;20178;-77
2021/04/17 00:03:40;;;;;;;4.80;3.33;;;2.80;99.90;;;;;;4863980;29;20048;-77
2021/04/17 00:06:07;;;;;;;4.35;3.35;;;2.70;99.90;;;;;;4863183;29;20485;-76
2021/04/17 00:08:33;;;;;;;6.72;3.85;;;2.70;99.90;;;;;;4863952;29;20037;-77
2021/04/17 00:10:59;;;;;;;8.57;5.30;;;2.80;99.90;;;;;;4863585;29;20045;-76
2021/04/17 00:13:26;;;;;;;7.57;4.93;;;3.00;99.90;;;;;;4863625;29;20042;-77
2021/04/17 00:15:51;;;;;;;5.90;3.85;;;2.90;99.90;;;;;;4864194;29;20048;-77
2021/04/17 00:18:17;;;;;;;6.53;4.05;;;3.00;99.90;;;;;;4863425;29;20128;-77
2021/04/17 00:20:43;;;;;;;4.15;3.28;;;2.90;99.90;;;;;;4863663;29;20051;-77
2021/04/17 00:23:09;;;;;;;5.95;3.38;;;3.00;99.90;;;;;;4863647;29;20042;-77
2021/04/17 00:25:34;;;;;;;5.57;3.40;;;3.00;99.90;;;;;;4863542;29;20045;-76
2021/04/17 00:28:00;;;;;;;5.60;3.55;;;3.10;99.60;;;;;;4863385;29;20446;-77
2021/04/17 00:30:26;;;;;;;7.03;3.28;;;3.30;99.80;;;;;;4863407;29;20103;-76
2021/04/17 00:32:52;;;;;;;5.65;3.50;;;3.30;99.90;;;;;;4863213;29;20034;-77
2021/04/17 00:35:18;;;;;;;5.00;3.03;;;3.40;98.60;;;;;;4863062;29;20053;-76
2021/04/17 00:37:44;;;;;;;6.90;3.30;;;3.40;99.00;;;;;;4863247;29;20201;-77
2021/04/17 00:40:10;;;;;;;4.30;3.08;;;3.40;99.90;;;;;;4863045;29;20052;-77
2021/04/17 00:42:36;;;;;;;5.28;3.33;;;3.30;99.90;;;;;;4863015;29;20494;-77
2021/04/17 00:45:04;;;;;;;7.50;3.75;;;3.50;96.40;;;;;;4863039;29;20490;-76
2021/04/17 00:47:31;;;;;;;5.93;3.53;;;3.60;98.20;;;;;;4863150;29;20080;-77
2021/04/17 00:49:57;;;;;;;4.43;3.40;;;3.50;98.80;;;;;;4863041;29;20502;-76
2021/04/17 00:52:22;;;;;;;3.83;3.08;;;3.50;99.40;;;;;;4863242;29;20145;-77
2021/04/17 00:54:48;;;;;;;4.65;2.90;;;3.50;99.10;;;;;;4862772;29;20097;-77
2021/04/17 00:57:14;;;;;;;4.30;3.42;;;3.50;99.80;;;;;;4863100;29;20053;-77
2021/04/17 00:59:40;;;;;;;6.97;3.45;;;3.50;99.80;;;;;;4862770;29;20045;-77
2021/04/17 01:02:06;;;;;;;4.00;3.60;;;3.40;99.90;;;;;;4862091;29;20073;-77
2021/04/17 01:04:44;;;;;;;43.58;21.17;;;3.40;99.70;;;;;;4862685;29;20107;-77
2021/04/17 01:07:32;;;;;;;10.07;5.85;;;3.40;99.90;;;;;;4862722;29;20049;-77
2021/04/17 01:10:12;;;;;;;3.97;3.22;;;3.40;99.90;;;;;;4862645;29;20072;-76
2021/04/17 01:12:41;;;;;;;5.75;3.00;;;3.40;99.90;;;;;;4862711;29;20121;-77
2021/04/17 01:15:11;;;;;;;6.65;3.88;;;3.30;99.90;;;;;;4862045;29;20184;-77
2021/04/17 01:17:39;;;;;;;9.00;4.00;;;3.20;99.90;;;;;;4862234;29;20129;-77
2021/04/17 01:20:41;;;;;;;6.10;3.40;;;3.20;99.90;;;;;;4862640;29;20052;-77
2021/04/17 01:23:34;;;;;;;3.90;3.47;;;3.20;99.90;;;;;;4862179;29;20041;-76
2021/04/17 01:26:06;;;;;;;3.10;2.78;;;3.10;99.90;;;;;;4862324;29;20488;-77
2021/04/17 01:28:36;;;;;;;4.78;3.00;;;3.10;99.90;;;;;;4862145;29;20045;-77
2021/04/17 01:31:05;;;;;;;7.22;4.03;;;3.10;99.90;;;;;;4862242;29;20037;-77
2021/04/17 01:33:36;;;;;;;4.30;3.25;;;3.10;99.90;;;;;;4861999;29;20052;-76
2021/04/17 01:36:04;;;;;;;3.53;2.90;;;3.10;99.90;;;;;;4862214;29;20563;-77
2021/04/17 01:38:34;;;;;;;3.95;3.08;;;3.10;99.90;;;;;;4862137;29;20049;-76
2021/04/17 01:41:03;;;;;;;3.40;3.10;;;3.10;99.90;;;;;;4862378;29;20577;-77
2021/04/17 01:43:32;;;;;;;6.20;3.53;;;3.00;99.90;;;;;;4861748;29;20081;-77
2021/04/17 01:46:03;;;;;;;6.53;4.75;;;2.90;99.90;;;;;;4862091;29;20050;-77
2021/04/17 01:48:30;;;;;;;6.82;3.58;;;2.90;99.90;;;;;;4862050;29;20069;-77
2021/04/17 01:50:58;;;;;;;6.28;3.70;;;3.00;99.90;;;;;;4862053;29;20129;-76
2021/04/17 01:53:29;;;;;;;5.07;3.63;;;3.00;99.90;;;;;;4862276;29;20110;-77
2021/04/17 01:55:56;;;;;;;4.00;2.90;;;2.90;99.90;;;;;;4862020;29;20050;-77
2021/04/17 01:58:30;;;;;;;4.75;3.33;;;3.00;99.90;;;;;;4861862;29;20045;-77
2021/04/17 02:00:57;;;;;;;7.00;3.90;;;2.90;99.90;;;;;;4861727;29;20122;-77
2021/04/17 02:03:24;;;;;;;5.75;3.92;;;2.90;99.90;;;;;;4861713;29;20094;-77
2021/04/17 02:05:51;;;;;;;5.28;3.80;;;2.90;99.90;;;;;;4861657;29;20050;-77
2021/04/17 02:08:17;;;;;;;5.50;3.65;;;3.00;99.90;;;;;;4861974;29;20128;-77
2021/04/17 02:10:45;;;;;;;4.68;3.20;;;3.00;99.90;;;;;;4876407;29;20416;-76
2021/04/17 02:13:12;;;;;;;4.60;3.33;;;2.90;99.90;;;;;;4861765;29;20124;-77
2021/04/17 02:15:39;;;;;;;4.10;2.97;;;2.80;99.90;;;;;;4862271;29;20045;-76
2021/04/17 02:18:22;;;;;;;4.95;2.90;;;2.90;99.90;;;;;;4861789;29;20053;-77
2021/04/17 02:21:09;;;;;;;3.67;2.70;;;2.80;99.90;;;;;;4862179;29;20045;-76
2021/04/17 02:23:36;;;;;;;5.50;3.15;;;3.00;99.90;;;;;;4862091;29;20067;-77
2021/04/17 02:26:03;;;;;;;3.83;2.80;;;3.20;99.90;;;;;;4861526;29;20398;-77
2021/04/17 02:28:30;;;;;;;4.63;3.22;;;3.20;99.90;;;;;;4862133;29;20149;-77
2021/04/17 02:30:56;;;;;;;3.90;3.40;;;3.20;99.90;;;;;;4865482;29;20549;-77
2021/04/17 02:33:23;;;;;;;4.90;3.30;;;3.40;99.90;;;;;;4864989;29;20096;-76
2021/04/17 02:35:49;;;;;;;7.10;4.22;;;3.50;99.10;;;;;;4864915;29;20524;-77
2021/04/17 02:38:16;;;;;;;6.05;3.70;;;3.60;97.40;;;;;;4865146;29;20503;-77
2021/04/17 02:40:42;;;;;;;5.30;4.05;;;3.70;96.10;;;;;;4864882;29;20129;-77
2021/04/17 02:43:08;;;;;;;5.25;3.40;;;3.80;95.50;;;;;;4865107;29;20045;-77
2021/04/17 02:45:34;;;;;;;6.38;3.80;;;3.90;94.40;;;;;;4864602;29;20382;-76
2021/04/17 02:48:00;;;;;;;5.15;4.40;;;3.90;93.80;;;;;;4864951;29;20073;-77
2021/04/17 02:50:26;;;;;;;5.20;3.80;;;3.80;94.60;;;;;;4865566;29;20056;-77
2021/04/17 02:52:52;;;;;;;6.40;3.67;;;3.90;93.30;;;;;;4864542;29;20034;-77
2021/04/17 02:55:19;;;;;;;4.65;3.78;;;4.00;93.00;;;;;;4865280;29;20049;-77
2021/04/17 02:57:46;;;;;;;6.03;3.63;;;4.00;93.30;;;;;;4864841;29;20108;-77
2021/04/17 03:00:17;;;;;;;6.40;3.45;;;3.90;93.30;;;;;;4864436;29;20139;-77
2021/04/17 03:02:43;;;;;;;5.82;4.25;;;4.00;93.20;;;;;;4865015;29;20065;-76
2021/04/17 03:05:11;;;;;;;4.93;4.13;;;4.00;93.10;;;;;;4864766;29;20053;-77
2021/04/17 03:07:36;;;;;;;8.27;3.78;;;4.00;93.10;;;;;;4865358;29;20152;-77
2021/04/17 03:10:05;;;;;;;5.75;4.13;;;4.00;92.80;;;;;;4864679;29;20045;-77
2021/04/17 03:12:31;;;;;;;6.38;4.00;;;4.00;92.30;;;;;;4864824;29;20117;-77
2021/04/17 03:14:57;;;;;;;5.55;3.58;;;4.00;92.70;;;;;;4864629;29;20093;-77
2021/04/17 03:17:22;;;;;;;4.97;3.92;;;4.00;93.10;;;;;;4864695;29;20552;-77
2021/04/17 03:19:48;;;;;;;5.32;3.70;;;4.00;93.90;;;;;;4864809;29;20041;-77
2021/04/17 03:22:14;;;;;;;4.18;3.53;;;3.90;94.50;;;;;;4864698;29;20084;-77
2021/04/17 03:24:40;;;;;;;5.70;4.13;;;3.90;94.70;;;;;;4865435;29;20459;-77
2021/04/17 03:27:06;;;;;;;6.65;3.70;;;3.90;96.10;;;;;;4864677;29;20189;-77
2021/04/17 03:29:33;;;;;;;5.55;4.13;;;3.80;96.40;;;;;;4865057;29;20052;-77
2021/04/17 03:31:58;;;;;;;6.95;3.90;;;3.80;97.00;;;;;;4864684;29;20116;-77
2021/04/17 03:34:24;;;;;;;5.90;3.88;;;3.80;97.00;;;;;;4864158;29;20182;-77
2021/04/17 03:36:50;;;;;;;5.22;4.30;;;3.70;97.50;;;;;;4864341;29;20049;-77
2021/04/17 03:39:16;;;;;;;5.15;4.10;;;3.70;96.90;;;;;;4864481;29;20074;-77
2021/04/17 03:41:42;;;;;;;8.05;4.40;;;3.90;97.10;;;;;;4863215;29;20041;-77
2021/04/17 03:44:08;;;;;;;6.60;4.25;;;4.00;96.50;;;;;;4863819;29;20052;-77
2021/04/17 03:46:34;;;;;;;6.00;4.68;;;4.00;96.40;;;;;;4863907;29;20049;-77
2021/04/17 03:49:00;;;;;;;6.35;5.07;;;4.70;95.00;;;;;;4864545;29;20065;-77
2021/04/17 03:51:27;;;;;;;7.30;4.90;;;5.20;93.30;;;;;;4864249;29;20037;-77
2021/04/17 03:53:53;;;;;;;5.82;4.80;;;5.30;92.60;;;;;;4864222;29;20069;-76
2021/04/17 03:56:19;;;;;;;5.63;4.57;;;5.40;91.80;;;;;;4864049;29;20037;-77
2021/04/17 03:58:45;;;;;;;5.68;5.07;;;5.40;92.00;;;;;;4863987;29;20100;-77
2021/04/17 04:01:12;;;;;;;8.10;4.90;;;5.50;91.70;;;;;;4863738;29;20057;-76
2021/04/17 04:03:38;;;;;;;6.57;5.00;;;5.60;89.60;;;;;;4863734;29;20041;-77
2021/04/17 04:06:04;;;;;;;5.43;4.55;;;5.60;88.90;;;;;;4863358;29;20509;-77
2021/04/17 04:08:30;;;;;;;5.57;4.60;;;5.60;89.10;;;;;;4863450;29;20124;-76
2021/04/17 04:10:56;;;;;;;8.63;5.03;;;5.70;87.50;;;;;;4863344;29;20077;-77
2021/04/17 04:13:22;;;;;;;5.43;4.47;;;5.70;86.50;;;;;;4863109;29;20045;-77
2021/04/17 04:15:48;;;;;;;6.55;4.80;;;5.80;85.90;;;;;;4863452;29;20092;-77
2021/04/17 04:18:14;;;;;;;4.95;4.45;;;5.70;87.20;;;;;;4863018;29;20053;-76
2021/04/17 04:20:39;;;;;;;5.72;5.00;;;5.90;82.70;;;;;;4863522;29;20037;-77
2021/04/17 04:23:05;;;;;;;6.63;4.57;;;6.00;80.30;;;;;;4863391;29;20054;-77
2021/04/17 04:25:31;;;;;;;6.57;4.75;;;6.10;79.30;;;;;;4863057;29;20045;-77
2021/04/17 04:27:57;;;;;;;6.32;5.20;;;6.10;78.30;;;;;;4862936;29;20072;-77
2021/04/17 04:30:24;;;;;;;8.23;5.45;;;5.90;80.40;;;;;;4862890;29;20056;-77
2021/04/17 04:32:50;;;;;;;6.10;5.50;;;5.70;82.50;;;;;;4863237;29;20041;-77
2021/04/17 04:35:16;;;;;;;8.65;5.15;;;5.60;83.20;;;;;;4862664;29;20092;-77
2021/04/17 04:37:42;;;;;;;6.72;5.70;;;5.60;82.90;;;;;;4863287;29;20046;-77
2021/04/17 04:40:09;;;;;;;8.70;4.63;;;5.80;83.30;;;;;;4863413;29;20052;-77
2021/04/17 04:42:36;;;;;;;6.65;5.25;;;5.80;81.90;;;;;;4863205;29;20097;-77
2021/04/17 04:45:05;;;;;;;6.07;5.10;;;5.90;79.80;;;;;;4862343;29;20132;-77
2021/04/17 04:47:31;;;;;;;6.35;5.18;;;5.90;82.30;;;;;;4862784;29;20064;-77
2021/04/17 04:49:57;;;;;;;7.40;5.68;;;5.90;82.10;;;;;;4862574;29;20079;-77
2021/04/17 04:52:23;;;;;;;8.95;5.50;;;5.30;83.30;;;;;;4862591;29;20140;-77
2021/04/17 04:54:48;;;;;;;8.60;5.68;;;5.10;87.40;;;;;;4862807;29;20467;-77
2021/04/17 04:57:14;;;;;;;6.95;5.10;;;4.60;88.20;;;;;;4862777;29;20402;-76
2021/04/17 04:59:40;;;;;;;6.68;5.68;;;4.50;90.00;;;;;;4862872;29;20077;-76
2021/04/17 05:02:06;;;;;;;11.48;6.05;;;4.40;91.50;;;;;;4862368;29;20421;-76
2021/04/17 05:04:32;;;;;;;6.57;5.88;;;4.50;92.10;;;;;;4862865;29;20042;-77
2021/04/17 05:06:58;;;;;;;8.48;6.00;;;5.00;93.10;;;;;;4862295;29;20045;-77
2021/04/17 05:09:23;;;;;;;7.53;6.05;;;4.90;92.40;;;;;;4862908;29;20053;-77
2021/04/17 05:11:49;;;;;;;7.38;5.57;;;4.80;95.00;;;;;;4862261;29;20056;-77
2021/04/17 05:14:15;;;;;;;8.45;6.13;;;4.80;95.60;;;;;;4862325;29;20121;-76
2021/04/17 05:16:41;;;;;;;10.52;6.32;;;5.00;96.00;;;;;;4862367;29;20070;-77
2021/04/17 05:19:07;;;;;;;8.63;6.55;;;5.10;98.60;;;;;;4863090;29;20120;-76
2021/04/17 05:21:33;;;;;;;7.78;6.35;;;4.90;97.40;;;;;;4862444;29;20045;-77
2021/04/17 05:23:59;;;;;;;8.68;6.68;;;4.80;96.80;;;;;;4862510;29;20117;-76
2021/04/17 05:26:25;;;;;;;8.07;6.13;;;4.60;98.20;;;;;;4862275;29;20041;-78
2021/04/17 05:28:51;;;;;;;7.63;6.22;;;4.60;98.00;;;;;;4861944;29;20053;-77
2021/04/17 05:31:17;;;;;;;7.13;5.32;;;4.50;98.70;;;;;;4862291;29;20049;-77
2021/04/17 05:33:43;;;;;;;8.25;5.97;;;4.20;96.90;;;;;;4862620;29;20405;-77
2021/04/17 05:36:09;;;;;;;8.25;5.30;;;4.00;96.80;;;;;;4860932;29;20165;-77
2021/04/17 05:38:34;;;;;;;8.05;5.93;;;3.80;96.40;;;;;;4862552;29;20041;-77
2021/04/17 05:41:00;;;;;;;6.72;5.25;;;3.70;97.30;;;;;;4862200;29;20541;-77
2021/04/17 05:43:26;;;;;;;6.70;5.38;;;3.70;97.70;;;;;;4862052;29;20097;-77
2021/04/17 05:45:52;;;;;;;7.53;5.43;;;3.70;97.60;;;;;;4861916;29;20087;-76
2021/04/17 05:48:18;;;;;;;7.40;5.38;;;3.70;98.10;;;;;;4862019;29;20045;-77
2021/04/17 05:50:44;;;;;;;7.65;5.05;;;3.70;97.60;;;;;;4862153;29;20140;-77
2021/04/17 05:53:09;;;;;;;9.48;5.70;;;3.70;97.70;;;;;;4860924;29;20072;-77
2021/04/17 05:55:35;;;;;;;8.82;5.70;;;3.70;98.40;;;;;;4861702;29;20405;-76
2021/04/17 05:58:01;;;;;;;7.50;5.88;;;3.70;98.20;;;;;;4861694;29;20041;-76
2021/04/17 06:00:28;;;;;;;8.60;6.30;;;3.80;97.40;;;;;;4861838;29;20089;-75
2021/04/17 06:02:54;;;;;;;8.75;4.82;;;3.80;97.30;;;;;;4862188;29;20068;-75
2021/04/17 06:05:21;;;;;;;9.50;5.25;;;3.80;96.60;;;;;;4865988;29;20052;-77
2021/04/17 06:07:47;;;;;;;8.48;5.32;;;3.80;96.00;;;;;;4865588;29;20706;-76
2021/04/17 06:10:13;;;;;;;5.95;5.22;;;3.90;96.20;;;;;;4866168;29;20102;-77
2021/04/17 06:12:40;;;;;;;10.45;5.13;;;3.90;95.90;;;;;;4863954;29;20041;-77
2021/04/17 06:15:07;;;;;;;7.47;5.05;;;3.90;95.70;;;;;;4864135;29;20049;-77
2021/04/17 06:17:33;;;;;;;10.52;5.40;;;4.00;96.30;;;;;;4865731;29;20073;-76
2021/04/17 06:19:59;;;;;;;10.48;5.85;;;4.00;95.60;;;;;;4865818;29;20077;-76
2021/04/17 06:22:25;;;;;;;6.65;5.55;;;4.00;96.40;;;;;;4865680;29;20581;-76
2021/04/17 06:24:50;;;;;;;6.75;5.38;;;4.10;96.40;;;;;;4865721;29;20088;-77
2021/04/17 06:27:16;;;;;;;10.60;5.30;;;4.10;95.00;;;;;;4865571;29;20045;-76
2021/04/17 06:29:42;;;;;;;7.35;5.32;;;4.00;95.40;;;;;;4865517;29;20068;-76
2021/04/17 06:32:08;;;;;;;7.68;5.70;;;4.10;95.00;;;;;;4865219;29;20038;-75
2021/04/17 06:34:34;;;;;;;6.15;5.25;;;4.20;95.80;;;;;;4865285;29;20439;-77
2021/04/17 06:37:00;;;;;;;7.55;5.78;;;4.30;95.10;;;;;;4865444;29;20057;-77
2021/04/17 06:39:26;;;;;;;8.10;5.35;;;4.30;94.30;;;;;;4864951;29;20081;-75
2021/04/17 06:41:53;;;;;;;8.23;5.47;;;4.30;94.40;;;;;;4865535;29;20382;-76
2021/04/17 06:44:22;;;;;;;7.88;5.85;;;4.30;93.70;;;;;;4864406;29;20042;-76
2021/04/17 06:46:49;;;;;;;7.65;5.57;;;4.30;94.80;;;;;;4864583;29;20044;-76
2021/04/17 06:49:16;;;;;;;7.88;6.00;;;4.30;93.40;;;;;;4863259;29;20124;-77
2021/04/17 06:51:48;;;;;;;7.13;5.57;;;4.40;93.80;;;;;;4864157;29;20041;-77
2021/04/17 06:54:19;;;;;;;8.55;5.43;;;4.50;93.10;;;;;;4864599;29;20050;-74
2021/04/17 06:56:47;;;;;;;7.20;4.72;;;4.80;92.40;;;;;;4864808;29;20584;-75
2021/04/17 06:59:14;;;;;;;7.82;5.43;;;5.00;90.40;;;;;;4864242;29;20061;-75
2021/04/17 07:01:40;;;;;;;11.30;7.28;;;5.00;89.50;;;;;;4864364;29;20081;-76
2021/04/17 07:04:06;;;;;;;9.88;5.60;;;5.00;90.80;;;;;;4864503;29;20045;-75
2021/04/17 07:06:32;;;;;;;9.45;5.60;;;5.10;90.80;;;;;;4864359;29;20049;-75
2021/04/17 07:08:58;;;;;;;6.75;4.90;;;5.10;91.20;;;;;;4864634;29;20040;-75
2021/04/17 07:11:24;;;;;;;14.55;8.82;;;5.00;90.90;;;;;;4864557;29;20041;-76
2021/04/17 07:14:10;;;;;;;11.88;7.05;;;4.70;91.80;;;;;;4864365;29;20125;-76
2021/04/17 07:17:04;;;;;;;7.97;5.13;;;4.70;92.10;;;;;;4864364;29;20072;-76
2021/04/17 07:19:50;;;;;;;8.77;6.22;;;4.70;92.90;;;;;;4864453;29;20046;-76
2021/04/17 07:22:37;;;;;;;9.13;5.85;;;4.80;91.80;;;;;;4864127;29;20040;-76
2021/04/17 07:25:06;;;;;;;8.15;5.20;;;4.70;92.20;;;;;;4864291;29;20080;-75
2021/04/17 07:27:36;;;;;;;7.80;5.40;;;4.90;91.10;;;;;;4863960;29;20038;-76
2021/04/17 07:30:14;;;;;;;7.00;5.03;;;4.80;91.50;;;;;;4863827;29;20469;-76
2021/04/17 07:32:43;;;;;;;12.40;7.68;;;4.80;91.10;;;;;;4864178;29;20041;-76
2021/04/17 07:35:20;;;;;;;11.63;6.78;;;5.00;91.10;;;;;;4864145;29;20531;-76
2021/04/17 07:37:48;;;;;;;7.00;5.28;;;5.10;90.30;;;;;;4863932;29;20080;-75
2021/04/17 07:40:20;;;;;;;5.35;4.40;;;5.30;88.20;;;;;;4863904;29;20133;-74
2021/04/17 07:42:55;;;;;;;5.32;4.82;;;5.20;89.30;;;;;;4869096;29;20067;-75
2021/04/17 07:45:31;;;;;;;7.63;4.30;;;5.30;89.70;;;;;;4882366;29;20048;-75
2021/04/17 07:48:17;;;;;;;5.22;3.83;;;5.90;72.40;;;;;;4882468;29;20052;-75
2021/04/17 07:50:43;;;;;;;5.53;4.28;;;6.40;66.20;;;;;;4882422;29;20041;-76
2021/04/17 07:53:36;;;;;;;4.93;3.55;;;6.70;65.70;;;;;;4882437;29;20387;-77
2021/04/17 07:56:31;;;;;;;16.05;9.43;;;6.70;63.90;;;;;;4882246;29;20045;-77
2021/04/17 07:59:00;;;;;;;8.52;6.13;;;7.00;61.70;;;;;;4882215;29;20041;-77
2021/04/17 08:01:28;;;;;;;3.95;3.55;;;7.00;61.70;;;;;;4882095;29;20077;-76
2021/04/17 08:03:56;;;;;;;8.23;6.57;;;7.00;62.70;;;;;;4882256;29;20037;-76
2021/04/17 08:06:24;;;;;;;9.93;8.02;;;7.10;62.50;;;;;;4882100;29;20077;-76
2021/04/17 08:08:52;;;;;;;6.25;4.88;;;7.10;58.70;;;;;;4882189;29;20055;-76
2021/04/17 08:11:23;;;;;;;6.25;4.72;;;7.10;59.20;;;;;;4882037;29;20049;-76
2021/04/17 08:13:51;;;;;;;213.70;189.95;;;7.10;62.20;;;;;;4881623;29;20516;-76
2021/04/17 08:16:18;;;;;;;19.40;17.42;;;7.10;61.00;;;;;;4881950;29;20049;-75
2021/04/17 08:18:46;;;;;;;6.15;4.85;;;7.40;60.70;;;;;;4881589;29;20127;-77
2021/04/17 08:21:15;;;;;;;8.40;6.68;;;7.60;57.30;;;;;;4881643;29;20076;-77
2021/04/17 08:23:46;;;;;;;5.63;4.70;;;7.90;55.90;;;;;;4881846;29;20037;-77
2021/04/17 08:26:13;;;;;;;25.80;23.23;;;8.00;58.70;;;;;;4880945;29;20111;-77
2021/04/17 08:28:41;;;;;;;6.05;4.25;;;7.90;54.30;;;;;;4864562;29;20032;-77
2021/04/17 08:31:25;;;;;;;95.43;85.43;;;7.90;55.90;;;;;;4880174;29;20454;-77
2021/04/17 08:34:17;;;;;;;6.90;4.85;;;8.00;53.60;;;;;;4880795;29;20168;-76
2021/04/17 08:36:52;;;;;;;11.88;10.13;;;7.70;55.90;;;;;;4879743;29;20048;-77
2021/04/17 08:39:36;;;;;;;5.07;4.57;;;7.90;58.30;;;;;;4862030;29;20450;-77
2021/04/17 08:42:06;;;;;;;11.32;10.25;;;7.80;56.90;;;;;;4881084;29;20033;-76
2021/04/17 08:44:38;;;;;;;4.65;3.38;;;7.60;54.20;;;;;;4880716;29;20052;-77
2021/04/17 08:47:05;;;;;;;4.18;3.28;;;7.60;54.80;;;;;;4880727;29;20045;-76
2021/04/17 08:49:33;;;;;;;4.57;3.78;;;7.70;54.80;;;;;;4881066;29;20120;-77
2021/04/17 08:52:20;;;;;;;5.63;3.35;;;7.70;55.50;;;;;;4880916;29;20069;-76
2021/04/17 08:55:06;;;;;;;4.90;4.40;;;7.80;54.00;;;;;;4878473;29;20044;-76
2021/04/17 08:57:32;;;;;;;5.03;3.85;;;7.80;53.80;;;;;;4842624;29;20041;-76
2021/04/17 09:00:00;;;;;;;6.55;3.90;;;7.90;53.70;;;;;;4860895;29;20057;-76
2021/04/17 09:02:28;;;;;;;10.25;5.93;;;8.10;54.60;;;;;;4861994;29;20030;-76
2021/04/17 09:05:07;;;;;;;6.38;3.85;;;8.10;57.70;;;;;;4861720;29;20124;-76
2021/04/17 09:07:41;;;;;;;5.78;4.20;;;8.20;57.70;;;;;;4862095;29;20141;-75
2021/04/17 09:10:25;;;;;;;9.18;6.07;;;8.00;59.70;;;;;;4861983;29;20051;-76
2021/04/17 09:13:09;;;;;;;4.85;4.20;;;8.00;60.10;;;;;;4861590;29;20592;-76
2021/04/17 09:16:00;;;;;;;8.10;5.45;;;7.90;60.00;;;;;;4861142;29;20053;-76
2021/04/17 09:18:32;;;;;;;4.35;3.55;;;7.80;62.60;;;;;;4861591;29;20402;-75
2021/04/17 09:21:18;;;;;;;9.18;6.90;;;8.30;62.60;;;;;;4861772;29;20037;-76
2021/04/17 09:23:53;;;;;;;6.95;3.97;;;8.40;61.30;;;;;;4859992;29;20041;-76
2021/04/17 09:26:33;;;;;;;5.07;3.88;;;8.90;60.20;;;;;;4861293;29;20057;-75
2021/04/17 09:29:05;;;;;;;6.03;5.43;;;8.60;56.80;;;;;;4861277;29;20033;-76
2021/04/17 09:31:36;;;;;;;6.00;4.00;;;8.80;56.10;;;;;;4861703;29;20082;-76
2021/04/17 09:34:03;;;;;;;8.82;7.15;;;8.90;55.40;;;;;;4861386;29;20041;-76
2021/04/17 09:36:30;;;;;;;5.80;3.65;;;9.20;53.20;;;;;;4861122;29;20049;-75
2021/04/17 09:38:57;;;;;;;4.50;3.60;;;9.20;53.60;;;;;;4861652;29;20037;-76
2021/04/17 09:41:23;;;;;;;5.53;4.97;;;9.10;51.70;;;;;;4861158;29;20070;-76
2021/04/17 09:43:56;;;;;;;6.38;4.95;;;8.80;55.90;;;;;;4861017;29;20045;-76
2021/04/17 09:46:23;;;;;;;4.70;4.20;;;8.80;55.00;;;;;;4860231;29;20076;-76
2021/04/17 09:48:49;;;;;;;5.80;4.72;;;8.70;57.90;;;;;;4859922;29;20034;-76
2021/04/17 09:51:22;;;;;;;7.45;5.90;;;8.60;60.00;;;;;;4859396;29;20037;-75
2021/04/17 09:53:50;;;;;;;6.10;4.32;;;8.40;62.40;;;;;;4860528;29;20042;-77
2021/04/17 09:56:34;;;;;;;7.15;4.57;;;8.40;60.30;;;;;;4859422;29;20120;-76
2021/04/17 09:59:09;;;;;;;5.53;4.38;;;8.40;61.80;;;;;;4859337;29;20438;-76
2021/04/17 10:01:36;;;;;;;6.05;4.38;;;8.40;62.30;;;;;;4859678;29;20514;-77
2021/04/17 10:04:02;;;;;;;4.93;4.38;;;8.70;62.10;;;;;;4861915;29;20068;-77
2021/04/17 10:06:33;;;;;;;5.55;4.07;;;8.80;61.00;;;;;;4862007;29;20053;-76
2021/04/17 10:09:09;;;;;;;;;;;9.00;59.90;;;;;;4862392;29;20037;-77
2021/04/17 10:11:38;;;;;;;7.30;4.40;;;9.40;60.00;;;;;;4845945;29;19912;-77
2021/04/17 10:14:05;;;;;;;5.25;4.25;;;9.40;59.50;;;;;;4857490;29;20037;-76
2021/04/17 10:16:36;;;;;;;9.02;5.13;;;9.40;58.80;;;;;;4859331;29;20501;-77
2021/04/17 10:19:09;;;;;;;6.53;4.63;;;9.40;59.70;;;;;;4858225;29;20064;-76
2021/04/17 10:21:36;;;;;;;6.68;4.60;;;9.50;59.40;;;;;;4860842;29;20045;-77
2021/04/17 10:24:23;;;;;;;4.90;4.20;;;9.50;60.10;;;;;;4860660;29;20037;-77
2021/04/17 10:27:05;;;;;;;7.70;4.78;;;10.10;57.20;;;;;;4861506;29;20073;-76
2021/04/17 10:29:42;;;;;;;5.53;4.93;;;9.80;56.40;;;;;;4844902;29;20371;-78
2021/04/17 10:32:16;;;;;;;6.03;5.43;;;9.90;57.10;;;;;;4861389;29;20110;-76
2021/04/17 10:34:44;;;;;;;6.93;5.03;;;9.50;57.90;;;;;;4861855;29;20037;-75
2021/04/17 10:37:22;;;;;;;7.00;4.75;;;9.60;58.60;;;;;;4861609;29;20061;-76
2021/04/17 10:40:12;;;;;;;6.25;4.47;;;9.70;58.70;;;;;;4861670;29;20029;-75
2021/04/17 10:42:57;;;;;;;6.47;4.67;;;9.50;57.80;;;;;;4860307;29;20105;-75
2021/04/17 10:45:29;;;;;;;5.63;4.43;;;9.20;57.90;;;;;;4861276;29;20278;-74
2021/04/17 10:48:14;;;;;;;6.10;4.50;;;9.20;54.80;;;;;;4861262;29;20033;-75
2021/04/17 10:50:43;;;;;;;4.90;3.72;;;9.30;53.40;;;;;;4863663;29;20494;-76
2021/04/17 10:53:15;;;;;;;4.70;3.72;;;9.60;50.80;;;;;;4864959;29;20033;-76
2021/04/17 10:55:50;;;;;;;9.55;7.95;;;9.50;50.90;;;;;;4848010;29;20053;-76
2021/04/17 10:58:33;;;;;;;4.78;3.90;;;9.50;50.00;;;;;;4863688;29;20041;-76
2021/04/17 11:01:05;;;;;;;7.97;5.00;;;9.40;49.30;;;;;;4862147;29;20144;-75
2021/04/17 11:03:42;;;;;;;7.32;4.65;;;9.50;51.20;;;;;;4863712;29;20072;-76
2021/04/17 11:06:26;;;;;;;4.60;3.70;;;9.60;49.50;;;;;;4863002;29;20045;-76
2021/04/17 11:09:18;;;;;;;75.55;56.85;;;9.70;47.50;;;;;;4864501;29;20045;-76
2021/04/17 11:12:23;;;;;;;31.27;22.88;;;9.60;44.90;;;;;;4864061;29;20051;-76
2021/04/17 11:14:49;;;;;;;5.55;4.22;;;9.50;44.50;;;;;;4853161;29;20041;-76
2021/04/17 11:17:16;;;;;;;34.97;25.77;;;10.00;45.90;;;;;;4864177;29;20074;-76
2021/04/17 11:19:45;;;;;;;5.78;4.82;;;10.60;44.40;;;;;;4864281;29;20581;-76
2021/04/17 11:22:15;;;;;;;5.80;4.63;;;10.70;44.20;;;;;;4864336;29;20069;-76
2021/04/17 11:25:04;;;;;;;5.38;4.45;;;10.70;43.00;;;;;;4864418;29;20045;-76
2021/04/17 11:27:31;;;;;;;7.60;6.80;;;10.50;45.60;;;;;;4864565;29;20037;-76
2021/04/17 11:29:57;;;;;;;6.25;4.78;;;10.30;45.60;;;;;;4864289;29;20056;-76
2021/04/17 11:32:26;;;;;;;5.07;4.20;;;10.00;47.20;;;;;;4872483;29;20047;-75
2021/04/17 11:34:52;;;;;;;7.00;4.90;;;9.90;47.70;;;;;;4863014;29;20053;-75
2021/04/17 11:37:19;;;;;;;7.93;4.43;;;9.60;47.50;;;;;;4863654;29;20136;-75
2021/04/17 11:39:45;;;;;;;5.90;5.30;;;9.60;48.70;;;;;;4863857;29;20041;-76
2021/04/17 11:42:11;;;;;;;7.40;5.25;;;9.40;49.60;;;;;;4864073;29;20135;-76
2021/04/17 11:44:38;;;;;;;6.40;4.80;;;9.50;50.20;;;;;;4863230;29;20417;-76
2021/04/17 11:47:04;;;;;;;7.57;5.30;;;9.60;50.80;;;;;;4863595;29;20052;-77
2021/04/17 11:49:30;;;;;;;7.85;6.43;;;9.80;51.50;;;;;;4863792;29;20050;-77
2021/04/17 11:51:55;;;;;;;10.57;5.10;;;9.90;49.80;;;;;;4863914;29;20516;-75
2021/04/17 11:54:21;;;;;;;5.38;4.25;;;9.90;49.20;;;;;;4863083;29;20128;-76
2021/04/17 11:56:47;;;;;;;6.32;5.35;;;9.90;47.50;;;;;;4862955;29;20045;-76
2021/04/17 11:59:13;;;;;;;5.82;4.53;;;9.90;48.40;;;;;;4862944;29;20057;-75
2021/04/17 12:01:39;;;;;;;4.50;3.92;;;10.00;50.80;;;;;;4845763;29;20053;-75
2021/04/17 12:04:05;;;;;;;6.43;4.35;;;9.90;48.60;;;;;;4863430;29;20034;-75
2021/04/17 12:06:31;;;;;;;23.40;20.98;;;10.00;49.10;;;;;;4863240;29;20581;-75
2021/04/17 12:08:57;;;;;;;7.50;4.40;;;10.10;47.50;;;;;;4846910;29;20117;-76
2021/04/17 12:11:23;;;;;;;4.32;3.45;;;10.10;47.80;;;;;;4863251;29;20053;-75
2021/04/17 12:13:50;;;;;;;5.07;4.57;;;10.10;47.50;;;;;;4863349;29;20132;-75
2021/04/17 12:16:16;;;;;;;4.70;4.13;;;9.90;47.00;;;;;;4863330;29;20072;-75
2021/04/17 12:18:42;;;;;;;4.57;3.92;;;10.10;46.90;;;;;;4863704;29;20045;-75
2021/04/17 12:21:08;;;;;;;7.63;4.35;;;10.10;45.80;;;;;;4863647;29;20042;-76
2021/04/17 12:23:34;;;;;;;6.82;4.28;;;10.30;46.90;;;;;;4863510;29;20042;-75
2021/04/17 12:26:01;;;;;;;6.35;3.80;;;10.60;46.30;;;;;;4863478;29;20049;-75
2021/04/17 12:28:27;;;;;;;4.53;3.85;;;10.60;45.60;;;;;;4863428;29;20034;-75
2021/04/17 12:30:57;;;;;;;3.97;3.60;;;10.40;45.70;;;;;;4863745;29;20101;-76
2021/04/17 12:33:29;;;;;;;5.10;4.63;;;10.30;46.00;;;;;;4863508;29;20075;-75
2021/04/17 12:35:55;;;;;;;4.85;3.88;;;10.30;46.10;;;;;;4862715;29;20502;-76
2021/04/17 12:38:21;;;;;;;7.22;3.80;;;10.20;46.60;;;;;;4846656;29;20053;-77
2021/04/17 12:40:54;;;;;;;4.90;3.83;;;10.40;46.50;;;;;;4863470;29;20057;-78
2021/04/17 12:43:19;;;;;;;3.75;3.42;;;10.30;46.10;;;;;;4862835;29;20052;-78
2021/04/17 12:45:45;;;;;;;4.82;3.50;;;10.30;46.20;;;;;;4862747;29;20045;-78
2021/04/17 12:48:13;;;;;;;5.85;3.85;;;10.30;47.00;;;;;;4862894;29;20038;-77
2021/04/17 12:50:39;;;;;;;5.00;4.15;;;10.50;47.00;;;;;;4856267;29;20089;-76
2021/04/17 12:53:05;;;;;;;5.32;3.70;;;10.40;44.90;;;;;;4861075;29;20408;-78
2021/04/17 12:55:31;;;;;;;3.28;2.97;;;10.50;46.60;;;;;;4862538;29;20048;-77
2021/04/17 12:57:57;;;;;;;4.68;3.47;;;10.50;46.00;;;;;;4860907;29;20124;-78
2021/04/17 13:00:23;;;;;;;6.30;3.75;;;10.50;45.70;;;;;;4860551;29;20045;-78
2021/04/17 13:02:49;;;;;;;5.55;3.78;;;10.50;46.10;;;;;;4861652;29;20174;-77
2021/04/17 13:05:15;;;;;;;4.63;3.80;;;10.70;46.20;;;;;;4861893;29;20444;-77
2021/04/17 13:07:42;;;;;;;4.45;3.88;;;10.80;45.30;;;;;;4862420;29;20069;-77